createdAt,value
2022-12-27T00:02:12.345Z,2.49
2022-12-27T00:04:55.706Z,2.47
2022-12-27T00:07:38.837Z,2.41
2022-12-27T00:10:22.098Z,2.48
2022-12-27T00:13:06.603Z,2.53
2022-12-27T00:15:49.576Z,2.46
2022-12-27T00:18:32.729Z,2.53
2022-12-27T00:21:16.937Z,2.45
2022-12-27T00:24:02.034Z,2.44
2022-12-27T00:26:45.090Z,2.34
2022-12-27T00:29:29.747Z,2.31
2022-12-27T00:32:12.820Z,2.16
2022-12-27T00:34:55.941Z,2.10
2022-12-27T00:37:38.953Z,2.17
2022-12-27T00:40:22.027Z,2.03
2022-12-27T00:43:05.069Z,2.09
2022-12-27T00:45:49.609Z,1.95
2022-12-27T00:48:32.829Z,1.77
2022-12-27T00:51:18.844Z,1.85
2022-12-27T00:54:01.912Z,1.73
2022-12-27T00:56:44.961Z,1.74
2022-12-27T00:59:27.978Z,1.73
2022-12-27T01:02:12.445Z,1.79
2022-12-27T01:04:57.417Z,1.76
2022-12-27T01:07:40.659Z,1.81
2022-12-27T01:10:23.764Z,1.70
2022-12-27T01:13:06.758Z,1.71
2022-12-27T01:15:49.902Z,1.46
2022-12-27T01:18:34.967Z,1.42
2022-12-27T01:21:20.796Z,1.54
2022-12-27T01:24:03.826Z,1.57
2022-12-27T01:26:46.953Z,1.63
2022-12-27T01:29:30.008Z,1.58
2022-12-27T01:32:13.039Z,1.62
2022-12-27T01:34:57.443Z,1.66
2022-12-27T01:37:40.531Z,1.62
2022-12-27T01:40:23.531Z,1.66
2022-12-27T01:43:05.827Z,1.66
2022-12-27T01:45:49.622Z,1.67
2022-12-27T01:48:32.796Z,1.61
2022-12-27T01:51:18.024Z,1.57
2022-12-27T01:54:01.129Z,1.57
2022-12-27T01:56:44.513Z,1.66
2022-12-27T01:59:27.646Z,1.71
2022-12-27T02:02:10.970Z,1.71
2022-12-27T02:04:55.950Z,1.78
2022-12-27T02:07:50.338Z,1.86
2022-12-27T02:10:34.031Z,1.87
2022-12-27T02:13:17.953Z,1.94
2022-12-27T02:16:00.963Z,1.95
2022-12-27T02:18:44.773Z,2.05
2022-12-27T02:22:00.272Z,2.09
2022-12-27T02:25:05.148Z,2.11
2022-12-27T02:28:03.990Z,2.04
2022-12-27T02:30:53.072Z,2.04
2022-12-27T02:33:44.706Z,1.99
2022-12-27T02:36:31.541Z,1.90
2022-12-27T02:39:17.647Z,1.90
2022-12-27T02:42:19.712Z,1.92
2022-12-27T02:45:21.098Z,1.87
2022-12-27T02:48:29.509Z,1.83
2022-12-27T02:51:43.839Z,1.92
2022-12-27T02:54:47.480Z,1.97
2022-12-27T02:57:40.484Z,2.00
2022-12-27T03:00:52.293Z,2.00
2022-12-27T03:03:50.604Z,2.03
2022-12-27T03:06:53.938Z,2.02
2022-12-27T03:10:04.178Z,1.99
2022-12-27T03:13:11.079Z,2.04
2022-12-27T03:16:09.721Z,2.03
2022-12-27T03:19:11.626Z,2.05
2022-12-27T03:22:26.838Z,2.05
2022-12-27T03:25:36.724Z,1.90
2022-12-27T03:28:41.247Z,1.86
2022-12-27T03:31:46.143Z,1.82
2022-12-27T03:34:36.091Z,1.77
2022-12-27T03:37:39.826Z,1.73
2022-12-27T03:40:33.809Z,1.45
2022-12-27T03:43:16.730Z,1.45
2022-12-27T03:46:29.024Z,1.49
2022-12-27T03:49:21.308Z,1.54
2022-12-27T03:52:11.551Z,1.50
2022-12-27T03:54:55.228Z,1.45
2022-12-27T03:57:38.996Z,1.42
2022-12-27T04:00:22.222Z,1.45
2022-12-27T04:03:05.759Z,1.44
2022-12-27T04:05:48.933Z,1.46
2022-12-27T04:08:51.026Z,1.45
2022-12-27T04:11:52.256Z,1.40
2022-12-27T04:14:52.907Z,1.34
2022-12-27T04:17:53.764Z,1.18
2022-12-27T04:20:54.186Z,1.24
2022-12-27T04:23:56.254Z,1.30
2022-12-27T04:26:56.740Z,1.18
2022-12-27T04:29:57.250Z,1.14
2022-12-27T04:32:57.563Z,1.04
2022-12-27T04:35:40.626Z,1.06
2022-12-27T04:38:23.650Z,1.02
2022-12-27T04:41:25.712Z,1.03
2022-12-27T04:44:25.807Z,1.03
2022-12-27T04:47:31.072Z,1.02
2022-12-27T04:50:43.852Z,0.93
2022-12-27T04:53:44.439Z,0.79
2022-12-27T04:56:28.809Z,0.80
2022-12-27T04:59:29.067Z,0.83
2022-12-27T05:02:12.244Z,0.84
2022-12-27T05:04:55.614Z,0.61
2022-12-27T05:07:56.576Z,0.67
2022-12-27T05:10:56.929Z,0.77
2022-12-27T05:13:58.999Z,0.69
2022-12-27T05:16:44.172Z,0.69
2022-12-27T05:19:27.265Z,0.72
2022-12-27T05:22:27.427Z,0.82
2022-12-27T05:25:29.398Z,0.72
2022-12-27T05:28:14.056Z,0.82
2022-12-27T05:31:02.735Z,0.86
2022-12-27T05:33:45.829Z,0.91
2022-12-27T05:36:29.072Z,0.89
2022-12-27T05:39:12.214Z,0.91
2022-12-27T05:41:55.279Z,0.88
2022-12-27T05:44:38.318Z,0.93
2022-12-27T05:47:22.830Z,0.92
2022-12-27T05:50:06.698Z,1.01
2022-12-27T05:52:49.792Z,1.13
2022-12-27T05:55:32.922Z,1.20
2022-12-27T05:58:15.957Z,1.21
2022-12-27T06:00:59.147Z,1.32
2022-12-27T06:03:43.762Z,1.31
2022-12-27T06:06:26.897Z,1.24
2022-12-27T06:09:10.435Z,1.15
2022-12-27T06:11:53.495Z,1.17
2022-12-27T06:14:36.877Z,1.12
2022-12-27T06:17:19.982Z,1.01
2022-12-27T06:20:04.621Z,1.00
2022-12-27T06:22:47.731Z,1.03
2022-12-27T06:25:30.856Z,1.24
2022-12-27T06:28:13.938Z,1.38
2022-12-27T06:30:59.090Z,1.53
2022-12-27T06:33:42.389Z,1.52
2022-12-27T06:36:27.791Z,1.60
2022-12-27T06:39:11.011Z,1.50
2022-12-27T06:41:55.390Z,1.62
2022-12-27T06:44:38.573Z,1.90
2022-12-27T06:47:21.627Z,2.13
2022-12-27T06:50:05.461Z,2.00
2022-12-27T06:52:49.936Z,2.04
2022-12-27T06:55:33.041Z,2.13
2022-12-27T06:58:16.253Z,2.29
2022-12-27T07:00:59.517Z,2.66
2022-12-27T07:03:43.087Z,3.05
2022-12-27T07:06:27.939Z,4.05
2022-12-27T07:09:12.862Z,7.11
2022-12-27T07:11:55.901Z,12.77
2022-12-27T07:14:40.552Z,16.45
2022-12-27T07:17:23.598Z,15.27
2022-12-27T07:20:09.407Z,11.91
2022-12-27T07:22:52.817Z,11.45
2022-12-27T07:25:37.442Z,10.46
2022-12-27T07:28:20.557Z,9.50
2022-12-27T07:31:08.361Z,9.12
2022-12-27T07:33:51.976Z,8.82
2022-12-27T07:36:38.280Z,8.85
2022-12-27T07:39:21.354Z,8.36
2022-12-27T07:42:08.661Z,9.48
2022-12-27T07:44:51.908Z,10.78
2022-12-27T07:47:35.085Z,13.52
2022-12-27T07:50:18.270Z,18.96
2022-12-27T07:53:04.757Z,23.21
2022-12-27T07:55:49.304Z,25.80
2022-12-27T07:58:38.849Z,28.23
2022-12-27T08:01:22.951Z,27.79
2022-12-27T08:04:06.260Z,28.88
2022-12-27T08:06:49.829Z,26.42
2022-12-27T08:09:37.243Z,26.59
2022-12-27T08:12:20.425Z,28.46
2022-12-27T08:15:05.244Z,30.51
2022-12-27T08:17:53.546Z,30.91
2022-12-27T08:20:38.243Z,31.91
2022-12-27T08:23:21.726Z,31.65
2022-12-27T08:26:05.666Z,31.98
2022-12-27T08:28:52.635Z,32.83
2022-12-27T08:31:52.628Z,34.64
2022-12-27T08:34:36.450Z,33.59
2022-12-27T08:37:19.902Z,34.34
2022-12-27T08:40:07.941Z,31.79
2022-12-27T08:42:51.461Z,32.79
2022-12-27T08:45:34.888Z,35.72
2022-12-27T08:48:20.725Z,35.91
2022-12-27T08:51:11.917Z,35.15
2022-12-27T08:53:56.187Z,35.93
2022-12-27T08:56:39.280Z,36.99
2022-12-27T08:59:22.604Z,33.17
2022-12-27T09:02:05.883Z,35.78
2022-12-27T09:04:50.612Z,36.23
2022-12-27T09:07:33.978Z,35.81
2022-12-27T09:10:17.768Z,33.34
2022-12-27T09:13:00.944Z,28.71
2022-12-27T09:15:45.214Z,24.06
2022-12-27T09:18:28.388Z,20.34
2022-12-27T09:21:14.757Z,21.56
2022-12-27T09:23:57.837Z,17.66
2022-12-27T09:26:41.318Z,18.02
2022-12-27T09:29:24.499Z,17.44
2022-12-27T09:32:07.882Z,16.21
2022-12-27T09:34:51.273Z,16.76
2022-12-27T09:37:35.799Z,15.53
2022-12-27T09:40:21.471Z,15.65
2022-12-27T09:43:19.596Z,14.70
2022-12-27T09:46:11.343Z,12.51
2022-12-27T09:48:57.170Z,13.36
2022-12-27T09:51:49.533Z,13.99
2022-12-27T09:54:40.326Z,14.41
2022-12-27T09:57:28.329Z,15.13
2022-12-27T10:00:19.946Z,16.63
2022-12-27T10:03:22.206Z,21.06
2022-12-27T10:06:26.744Z,25.72
2022-12-27T10:09:26.502Z,29.39
2022-12-27T10:12:29.930Z,33.29
2022-12-27T10:15:24.696Z,35.21
2022-12-27T10:18:19.410Z,36.65
2022-12-27T10:21:12.439Z,38.00
2022-12-27T10:23:59.932Z,39.11
2022-12-27T10:26:43.160Z,40.36
2022-12-27T10:29:28.423Z,38.39
2022-12-27T10:32:14.814Z,37.03
2022-12-27T10:35:01.482Z,39.63
2022-12-27T10:37:48.249Z,38.82
2022-12-27T10:40:41.061Z,38.26
2022-12-27T10:43:30.059Z,40.39
2022-12-27T10:46:18.063Z,41.31
2022-12-27T10:52:11.453Z,41.56
2022-12-27T10:54:56.266Z,39.61
2022-12-27T10:57:39.298Z,36.91
2022-12-27T11:00:24.770Z,37.09
2022-12-27T11:03:20.401Z,39.46
2022-12-27T11:06:05.927Z,37.00
2022-12-27T11:08:49.397Z,36.13
2022-12-27T11:11:32.600Z,37.17
2022-12-27T11:14:19.132Z,36.85
2022-12-27T11:17:10.714Z,37.37
2022-12-27T11:19:57.462Z,38.89
2022-12-27T11:22:45.424Z,39.86
2022-12-27T11:25:29.718Z,40.49
2022-12-27T11:28:24.466Z,40.31
2022-12-27T11:31:11.336Z,38.71
2022-12-27T11:33:56.308Z,39.82
2022-12-27T11:36:43.109Z,39.34
2022-12-27T11:39:40.591Z,39.93
2022-12-27T11:42:33.716Z,40.60
2022-12-27T11:45:24.183Z,41.70
2022-12-27T11:48:20.136Z,40.74
2022-12-27T11:51:22.662Z,40.97
2022-12-27T11:54:34.423Z,40.91
2022-12-27T11:57:28.591Z,36.63
2022-12-27T12:00:19.268Z,33.18
2022-12-27T12:03:36.299Z,27.75
2022-12-27T12:06:28.832Z,26.04
2022-12-27T12:09:36.490Z,23.78
2022-12-27T12:12:56.242Z,21.50
2022-12-27T12:16:04.904Z,19.71
2022-12-27T12:19:10.612Z,18.92
2022-12-27T12:22:05.988Z,18.52
2022-12-27T12:25:09.208Z,18.10
2022-12-27T12:28:55.559Z,17.31
2022-12-27T12:31:42.498Z,16.95
2022-12-27T12:34:39.149Z,16.54
2022-12-27T12:37:40.321Z,16.40
2022-12-27T12:40:44.516Z,16.10
2022-12-27T12:43:51.703Z,16.14
2022-12-27T12:46:39.733Z,15.88
2022-12-27T12:49:54.335Z,15.79
2022-12-27T12:52:51.986Z,15.78
2022-12-27T12:55:48.589Z,15.80
2022-12-27T12:58:46.296Z,15.32
2022-12-27T13:01:51.109Z,15.60
2022-12-27T13:04:58.617Z,15.62
2022-12-27T13:07:53.157Z,15.26
2022-12-27T13:10:50.985Z,15.17
2022-12-27T13:13:48.096Z,15.15
2022-12-27T13:16:45.391Z,15.24
2022-12-27T13:19:56.782Z,15.18
2022-12-27T13:22:55.067Z,15.15
2022-12-27T13:25:46.237Z,15.06
2022-12-27T13:28:40.406Z,15.22
2022-12-27T13:31:36.180Z,15.27
2022-12-27T13:34:36.104Z,15.22
2022-12-27T13:37:33.747Z,15.02
2022-12-27T13:40:44.803Z,14.96
2022-12-27T13:43:57.779Z,14.81
2022-12-27T13:47:08.964Z,14.60
2022-12-27T13:50:18.639Z,14.15
2022-12-27T13:53:22.895Z,14.24
2022-12-27T13:56:52.737Z,14.10
2022-12-27T14:00:06.984Z,13.98
2022-12-27T14:03:22.353Z,13.90
2022-12-27T14:06:33.391Z,13.91
2022-12-27T14:09:35.852Z,13.86
2022-12-27T14:12:50.489Z,13.61
2022-12-27T14:16:07.264Z,13.41
2022-12-27T14:19:22.896Z,13.30
2022-12-27T14:22:38.257Z,13.21
2022-12-27T14:26:03.632Z,13.15
2022-12-27T14:29:18.640Z,13.03
2022-12-27T14:32:36.257Z,12.93
2022-12-27T14:35:42.767Z,12.72
2022-12-27T14:38:48.285Z,12.67
2022-12-27T14:42:15.956Z,12.59
2022-12-27T14:45:34.405Z,12.59
2022-12-27T14:49:02.389Z,12.51
2022-12-27T14:52:19.921Z,12.19
2022-12-27T14:55:36.317Z,12.09
2022-12-27T14:58:41.214Z,11.91
2022-12-27T15:01:40.845Z,11.89
2022-12-27T15:04:46.345Z,11.73
2022-12-27T15:07:53.730Z,11.70
2022-12-27T15:11:00.888Z,11.57
2022-12-27T15:14:01.279Z,11.76
2022-12-27T15:16:56.165Z,11.72
2022-12-27T15:20:02.643Z,11.64
2022-12-27T15:22:58.366Z,11.51
2022-12-27T15:25:54.343Z,11.18
2022-12-27T15:28:52.830Z,11.15
2022-12-27T15:31:45.171Z,10.93
2022-12-27T15:34:45.082Z,10.82
2022-12-27T15:38:04.357Z,10.71
2022-12-27T15:41:07.362Z,10.56
2022-12-27T15:44:13.700Z,10.58
2022-12-27T15:47:21.751Z,10.57
2022-12-27T15:50:31.882Z,10.53
2022-12-27T15:53:52.551Z,10.49
2022-12-27T15:56:45.224Z,10.50
2022-12-27T15:59:39.337Z,10.44
2022-12-27T16:02:32.989Z,10.34
2022-12-27T16:05:54.129Z,10.45
2022-12-27T16:08:41.116Z,10.54
2022-12-27T16:12:01.426Z,10.56
2022-12-27T16:14:45.154Z,10.50
2022-12-27T16:17:38.734Z,10.50
2022-12-27T16:20:23.823Z,10.45
2022-12-27T16:23:08.622Z,10.47
2022-12-27T16:26:03.799Z,10.51
2022-12-27T16:28:55.212Z,10.51
2022-12-27T16:31:45.571Z,10.46
2022-12-27T16:34:31.519Z,10.46
2022-12-27T16:37:30.870Z,10.39
2022-12-27T16:40:37.965Z,10.37
2022-12-27T16:43:50.461Z,10.20
2022-12-27T16:46:53.701Z,10.07
2022-12-27T16:50:01.817Z,10.01
2022-12-27T16:53:02.359Z,9.98
2022-12-27T16:56:08.167Z,9.90
2022-12-27T16:58:53.713Z,9.89
2022-12-27T17:01:58.919Z,9.85
2022-12-27T17:05:02.089Z,9.78
2022-12-27T17:07:51.483Z,9.71
2022-12-27T17:11:09.831Z,9.62
2022-12-27T17:13:58.130Z,9.63
2022-12-27T17:16:44.186Z,9.63
2022-12-27T17:19:34.450Z,9.60
2022-12-27T17:22:19.201Z,9.57
2022-12-27T17:25:03.444Z,9.42
2022-12-27T17:27:57.973Z,9.43
2022-12-27T17:30:54.482Z,9.35
2022-12-27T17:33:43.513Z,9.20
2022-12-27T17:36:38.536Z,9.13
2022-12-27T17:39:38.122Z,8.91
2022-12-27T17:42:48.895Z,8.91
2022-12-27T17:45:41.488Z,8.87
2022-12-27T17:48:29.098Z,8.79
2022-12-27T17:51:16.100Z,8.70
2022-12-27T17:54:16.845Z,8.75
2022-12-27T17:57:19.616Z,8.59
2022-12-27T18:00:03.170Z,8.57
2022-12-27T18:02:46.455Z,8.58
2022-12-27T18:05:34.012Z,8.56
2022-12-27T18:08:28.051Z,8.60
2022-12-27T18:11:15.760Z,8.60
2022-12-27T18:14:01.032Z,8.71
2022-12-27T18:16:44.297Z,8.65
2022-12-27T18:19:31.073Z,8.85
2022-12-27T18:22:20.531Z,8.96
2022-12-27T18:25:04.083Z,9.04
2022-12-27T18:28:00.506Z,9.00
2022-12-27T18:30:46.748Z,9.05
2022-12-27T18:33:34.408Z,9.07
2022-12-27T18:36:25.732Z,9.01
2022-12-27T18:39:29.960Z,8.99
2022-12-27T18:42:18.728Z,8.91
2022-12-27T18:45:05.198Z,8.70
2022-12-27T18:47:50.872Z,8.73
2022-12-27T18:50:35.762Z,8.60
2022-12-27T18:53:25.268Z,8.49
2022-12-27T18:56:29.302Z,8.48
2022-12-27T18:59:25.570Z,8.52
2022-12-27T19:02:34.438Z,8.46
2022-12-27T19:05:31.242Z,8.44
2022-12-27T19:08:20.196Z,8.46
2022-12-27T19:11:03.740Z,8.39
2022-12-27T19:13:53.127Z,8.38
2022-12-27T19:16:36.835Z,8.35
2022-12-27T19:19:25.415Z,8.28
2022-12-27T19:22:46.922Z,8.22
2022-12-27T19:25:31.595Z,8.16
2022-12-27T19:28:26.793Z,8.09
2022-12-27T19:31:18.538Z,8.01
2022-12-27T19:34:03.864Z,7.69
2022-12-27T19:36:48.840Z,7.65
2022-12-27T19:39:35.994Z,7.62
2022-12-27T19:42:26.070Z,7.55
2022-12-27T19:45:14.863Z,7.47
2022-12-27T19:47:59.419Z,7.33
2022-12-27T19:50:46.901Z,7.19
2022-12-27T19:53:34.702Z,7.12
2022-12-27T19:56:18.131Z,7.09
2022-12-27T19:59:01.303Z,7.10
2022-12-27T20:01:46.774Z,7.16
2022-12-27T20:04:31.326Z,7.25
2022-12-27T20:07:21.775Z,7.27
2022-12-27T20:10:06.199Z,7.31
2022-12-27T20:12:51.439Z,7.38
2022-12-27T20:15:34.450Z,7.36
2022-12-27T20:18:18.083Z,7.38
2022-12-27T20:21:02.667Z,7.38
2022-12-27T20:23:46.135Z,7.37
2022-12-27T20:26:29.485Z,7.36
2022-12-27T20:29:15.299Z,7.42
2022-12-27T20:31:59.030Z,7.43
2022-12-27T20:34:43.208Z,7.40
2022-12-27T20:37:28.061Z,7.47
2022-12-27T20:40:12.310Z,7.52
2022-12-27T20:42:57.103Z,7.52
2022-12-27T20:45:40.361Z,7.55
2022-12-27T20:48:23.814Z,7.53
2022-12-27T20:51:09.197Z,7.45
2022-12-27T20:53:58.263Z,7.44
2022-12-27T20:56:41.568Z,7.40
2022-12-27T20:59:24.908Z,7.33
2022-12-27T21:02:08.231Z,7.28
2022-12-27T21:04:51.913Z,7.29
2022-12-27T21:07:35.655Z,7.28
2022-12-27T21:10:20.352Z,7.24
2022-12-27T21:13:03.510Z,7.26
2022-12-27T21:15:48.717Z,7.24
2022-12-27T21:18:32.646Z,7.24
2022-12-27T21:21:19.571Z,7.20
2022-12-27T21:24:03.226Z,7.18
2022-12-27T21:26:51.968Z,7.21
2022-12-27T21:29:39.284Z,7.21
2022-12-27T21:32:22.358Z,7.21
2022-12-27T21:35:05.863Z,7.28
2022-12-27T21:37:48.990Z,7.25
2022-12-27T21:40:31.993Z,7.20
2022-12-27T21:43:16.416Z,7.15
2022-12-27T21:45:59.895Z,7.15
2022-12-27T21:48:43.357Z,7.12
2022-12-27T21:51:27.387Z,7.17
2022-12-27T21:54:11.643Z,7.25
2022-12-27T21:56:54.713Z,7.24
2022-12-27T21:59:39.380Z,7.24
2022-12-27T22:02:22.872Z,7.34
2022-12-27T22:05:07.932Z,7.25
2022-12-27T22:07:51.003Z,7.22
2022-12-27T22:10:34.209Z,7.24
2022-12-27T22:13:17.241Z,7.22
2022-12-27T22:16:03.532Z,7.38
2022-12-27T22:18:47.640Z,7.47
2022-12-27T22:21:32.897Z,7.57
2022-12-27T22:24:19.859Z,7.52
2022-12-27T22:27:03.287Z,7.59
2022-12-27T22:29:46.385Z,7.71
2022-12-27T22:32:30.785Z,7.73
2022-12-27T22:35:13.841Z,7.78
2022-12-27T22:37:56.843Z,7.80
2022-12-27T22:40:46.474Z,7.84
2022-12-27T22:43:30.229Z,7.86
2022-12-27T22:46:14.542Z,7.85
2022-12-27T22:49:01.090Z,7.87
2022-12-27T22:51:44.123Z,7.84
2022-12-27T22:55:04.691Z,7.89
2022-12-27T22:57:30.282Z,7.74
2022-12-27T23:00:16.012Z,7.67
2022-12-27T23:02:59.044Z,7.71
2022-12-27T23:05:43.591Z,7.76
2022-12-27T23:08:26.913Z,7.84
2022-12-27T23:11:12.914Z,7.87
2022-12-27T23:13:58.553Z,7.90
2022-12-27T23:16:43.969Z,7.96
2022-12-27T23:19:27.034Z,7.99
2022-12-27T23:22:11.516Z,7.99
2022-12-27T23:24:54.654Z,8.00
2022-12-27T23:27:37.773Z,8.05
2022-12-27T23:30:22.972Z,8.10
2022-12-27T23:33:06.022Z,8.14
2022-12-27T23:35:49.192Z,8.05
2022-12-27T23:38:33.627Z,8.07
2022-12-27T23:41:17.687Z,8.10
2022-12-27T23:44:01.665Z,8.09
2022-12-27T23:46:45.189Z,8.04
2022-12-27T23:49:28.234Z,8.11
2022-12-27T23:52:11.459Z,8.06
2022-12-27T23:54:55.926Z,8.01
2022-12-27T23:57:39.250Z,8.10
